createdAt,value
2019-04-06T00:00:07.663Z,99.90
2019-04-06T00:02:38.306Z,99.90
2019-04-06T00:05:07.042Z,99.90
2019-04-06T00:07:33.912Z,99.90
2019-04-06T00:10:00.794Z,99.90
2019-04-06T00:12:27.694Z,99.90
2019-04-06T00:14:54.622Z,99.90
2019-04-06T00:17:23.980Z,99.90
2019-04-06T00:19:51.842Z,99.90
2019-04-06T00:22:18.718Z,99.90
2019-04-06T00:24:45.610Z,99.90
2019-04-06T00:27:13.373Z,99.90
2019-04-06T00:29:41.375Z,99.90
2019-04-06T00:32:10.155Z,99.90
2019-04-06T00:34:36.982Z,99.90
2019-04-06T00:37:03.978Z,99.90
2019-04-06T00:39:31.214Z,99.90
2019-04-06T00:41:58.367Z,99.90
2019-04-06T00:44:25.132Z,99.90
2019-04-06T00:46:51.970Z,99.90
2019-04-06T00:49:18.906Z,99.90
2019-04-06T00:51:45.814Z,99.90
2019-04-06T00:54:12.836Z,99.90
2019-04-06T00:56:39.790Z,99.90
2019-04-06T00:59:06.728Z,99.90
2019-04-06T01:01:33.710Z,99.90
2019-04-06T01:04:00.393Z,99.90
2019-04-06T01:06:27.340Z,99.90
2019-04-06T01:08:54.320Z,99.90
2019-04-06T01:11:22.945Z,99.90
2019-04-06T01:13:49.974Z,99.90
2019-04-06T01:16:16.908Z,99.90
2019-04-06T01:18:43.640Z,99.90
2019-04-06T01:21:10.539Z,99.90
2019-04-06T01:23:37.643Z,99.90
2019-04-06T01:26:07.910Z,99.90
2019-04-06T01:28:34.781Z,99.90
2019-04-06T01:31:02.927Z,99.90
2019-04-06T01:33:29.811Z,99.90
2019-04-06T01:35:56.729Z,99.90
2019-04-06T01:38:46.080Z,99.90
2019-04-06T01:41:15.682Z,99.90
2019-04-06T01:43:58.467Z,99.90
2019-04-06T01:46:35.396Z,99.90
2019-04-06T01:49:24.528Z,99.90
2019-04-06T01:51:57.245Z,99.90
2019-04-06T01:57:35.081Z,99.90
2019-04-06T02:00:32.540Z,99.90
2019-04-06T02:06:00.887Z,99.90
2019-04-06T02:08:34.157Z,99.90
2019-04-06T02:14:03.819Z,99.90
2019-04-06T02:16:55.329Z,99.90
2019-04-06T02:25:44.432Z,99.90
2019-04-06T02:28:11.252Z,99.90
2019-04-06T02:30:54.974Z,99.90
2019-04-06T02:33:31.400Z,99.90
2019-04-06T02:36:02.812Z,99.90
2019-04-06T02:38:40.263Z,99.90
2019-04-06T02:41:12.063Z,99.90
2019-04-06T02:43:40.017Z,99.90
2019-04-06T02:46:06.783Z,99.90
2019-04-06T02:48:34.149Z,99.90
2019-04-06T02:51:00.993Z,99.90
2019-04-06T02:53:27.852Z,99.90
2019-04-06T02:55:54.783Z,99.90
2019-04-06T02:58:23.203Z,99.90
2019-04-06T03:00:50.462Z,99.90
2019-04-06T03:03:17.498Z,99.90
2019-04-06T03:05:44.499Z,99.90
2019-04-06T03:08:11.513Z,99.90
2019-04-06T03:10:38.456Z,99.90
2019-04-06T03:13:05.311Z,99.90
2019-04-06T03:15:32.218Z,99.90
2019-04-06T03:17:59.421Z,99.90
2019-04-06T03:20:27.506Z,99.90
2019-04-06T03:22:54.409Z,99.90
2019-04-06T03:25:21.817Z,99.90
2019-04-06T03:27:48.713Z,99.90
2019-04-06T03:30:16.655Z,99.90
2019-04-06T03:32:43.520Z,99.90
2019-04-06T03:35:11.488Z,99.90
2019-04-06T03:37:38.503Z,99.90
2019-04-06T03:40:05.984Z,99.90
2019-04-06T03:42:33.087Z,99.90
2019-04-06T03:44:59.998Z,99.90
2019-04-06T03:47:26.874Z,99.90
2019-04-06T03:49:53.788Z,99.90
2019-04-06T03:52:20.932Z,99.90
2019-04-06T03:54:48.617Z,99.90
2019-04-06T03:57:16.942Z,99.90
2019-04-06T03:59:44.034Z,99.90
2019-04-06T04:02:10.781Z,99.90
2019-04-06T04:04:38.500Z,99.90
2019-04-06T04:07:05.247Z,99.90
2019-04-06T04:09:32.023Z,99.90
2019-04-06T04:11:58.761Z,99.90
2019-04-06T04:14:25.609Z,99.90
2019-04-06T04:17:01.287Z,99.90
2019-04-06T04:19:30.238Z,99.90
2019-04-06T04:21:57.106Z,99.90
2019-04-06T04:24:26.501Z,99.90
2019-04-06T04:26:53.244Z,99.90
2019-04-06T04:29:20.134Z,99.90
2019-04-06T04:31:46.898Z,99.90
2019-04-06T04:34:13.652Z,99.90
2019-04-06T04:36:40.441Z,99.90
2019-04-06T04:39:07.643Z,99.90
2019-04-06T04:41:34.500Z,99.90
2019-04-06T04:44:01.238Z,99.90
2019-04-06T04:46:28.158Z,99.90
2019-04-06T04:48:55.035Z,99.90
2019-04-06T04:51:21.754Z,99.90
2019-04-06T04:53:50.714Z,99.90
2019-04-06T04:56:18.710Z,99.90
2019-04-06T04:58:45.450Z,99.90
2019-04-06T05:01:12.131Z,99.90
2019-04-06T05:03:40.792Z,99.90
2019-04-06T05:06:07.602Z,99.90
2019-04-06T05:08:34.483Z,99.90
2019-04-06T05:11:01.222Z,99.90
2019-04-06T05:13:28.451Z,99.90
2019-04-06T05:16:07.958Z,99.90
2019-04-06T05:18:34.614Z,99.90
2019-04-06T05:21:01.432Z,99.90
2019-04-06T05:23:28.221Z,99.90
2019-04-06T05:25:54.884Z,99.90
2019-04-06T05:28:21.616Z,99.90
2019-04-06T05:30:48.487Z,99.90
2019-04-06T05:33:17.998Z,99.90
2019-04-06T05:35:44.699Z,99.90
2019-04-06T05:38:11.548Z,99.90
2019-04-06T05:40:38.541Z,99.90
2019-04-06T05:43:05.337Z,99.90
2019-04-06T05:45:32.638Z,99.90
2019-04-06T05:48:00.720Z,99.90
2019-04-06T05:50:27.464Z,99.90
2019-04-06T05:52:54.316Z,99.90
2019-04-06T05:55:24.393Z,99.90
2019-04-06T05:58:02.374Z,99.90
2019-04-06T06:00:19.731Z,99.90
2019-04-06T06:02:46.499Z,99.90
2019-04-06T06:05:13.291Z,99.90
2019-04-06T06:07:40.123Z,99.90
2019-04-06T06:10:07.161Z,99.90
2019-04-06T06:12:34.625Z,99.90
2019-04-06T06:15:01.881Z,99.90
2019-04-06T06:17:28.862Z,99.90
2019-04-06T06:19:55.733Z,99.90
2019-04-06T06:22:31.454Z,99.90
2019-04-06T06:25:00.080Z,99.90
2019-04-06T06:27:27.540Z,99.90
2019-04-06T06:29:54.550Z,99.90
2019-04-06T06:32:22.429Z,99.90
2019-04-06T06:34:49.963Z,99.90
2019-04-06T06:37:16.680Z,99.90
2019-04-06T06:39:43.400Z,99.90
2019-04-06T06:42:10.184Z,99.90
2019-04-06T06:44:37.776Z,99.90
2019-04-06T06:47:04.659Z,99.90
2019-04-06T06:49:31.504Z,99.90
2019-04-06T06:51:58.205Z,99.90
2019-04-06T06:54:26.060Z,99.90
2019-04-06T06:56:52.886Z,99.90
2019-04-06T06:59:20.181Z,99.90
2019-04-06T07:01:46.940Z,99.90
2019-04-06T07:04:13.734Z,99.90
2019-04-06T07:06:41.724Z,99.90
2019-04-06T07:09:08.598Z,99.90
2019-04-06T07:11:35.474Z,99.90
2019-04-06T07:14:04.268Z,99.90
2019-04-06T07:16:31.109Z,99.90
2019-04-06T07:18:58.441Z,99.90
2019-04-06T07:21:25.194Z,99.90
2019-04-06T07:23:51.948Z,99.90
2019-04-06T07:26:18.612Z,99.90
2019-04-06T07:28:45.495Z,99.90
2019-04-06T07:31:12.368Z,99.90
2019-04-06T07:33:40.659Z,99.90
2019-04-06T07:36:07.638Z,99.90
2019-04-06T07:38:34.512Z,99.90
2019-04-06T07:41:01.174Z,99.90
2019-04-06T07:43:35.184Z,99.90
2019-04-06T07:46:32.850Z,99.90
2019-04-06T07:49:08.310Z,99.90
2019-04-06T07:51:41.125Z,99.90
2019-04-06T07:54:08.345Z,99.90
2019-04-06T07:56:37.078Z,99.90
2019-04-06T07:59:14.298Z,99.90
2019-04-06T08:01:41.244Z,99.90
2019-04-06T08:04:16.466Z,99.90
2019-04-06T08:06:49.222Z,99.90
2019-04-06T08:12:05.914Z,99.90
2019-04-06T08:14:35.784Z,99.90
2019-04-06T08:17:10.935Z,99.90
2019-04-06T08:22:38.608Z,99.90
2019-04-06T08:25:06.204Z,99.90
2019-04-06T08:27:33.368Z,99.90
2019-04-06T08:30:03.535Z,99.90
2019-04-06T08:32:34.236Z,99.90
2019-04-06T08:38:02.907Z,99.90
2019-04-06T08:40:32.442Z,99.90
2019-04-06T08:43:03.860Z,99.90
2019-04-06T08:45:38.756Z,99.90
2019-04-06T08:48:05.646Z,99.90
2019-04-06T08:50:32.338Z,99.90
2019-04-06T08:53:01.370Z,99.90
2019-04-06T08:55:28.530Z,99.90
2019-04-06T09:06:54.494Z,99.90
2019-04-06T09:15:22.668Z,99.90
2019-04-06T09:17:50.663Z,99.90
2019-04-06T09:20:17.664Z,99.90
2019-04-06T09:22:44.506Z,99.90
2019-04-06T09:25:11.682Z,99.90
2019-04-06T09:27:38.673Z,99.90
2019-04-06T09:30:06.216Z,99.90
2019-04-06T09:32:35.076Z,99.90
2019-04-06T09:37:56.349Z,99.90
2019-04-06T09:43:30.868Z,99.90
2019-04-06T09:46:17.598Z,99.90
2019-04-06T09:49:22.927Z,99.90
2019-04-06T09:52:09.488Z,99.90
2019-04-06T09:54:51.236Z,99.90
2019-04-06T09:57:30.689Z,99.90
2019-04-06T10:00:23.122Z,99.90
2019-04-06T10:06:12.488Z,99.90
2019-04-06T10:14:46.407Z,99.90
2019-04-06T10:17:19.647Z,99.90
2019-04-06T10:20:07.370Z,99.80
2019-04-06T10:23:05.943Z,99.60
2019-04-06T10:26:03.789Z,99.50
2019-04-06T10:31:43.093Z,98.60
2019-04-06T10:34:14.510Z,98.40
2019-04-06T10:37:06.434Z,97.60
2019-04-06T10:39:42.777Z,96.90
2019-04-06T10:42:18.511Z,96.40
2019-04-06T10:44:59.549Z,96.60
2019-04-06T10:47:43.265Z,96.90
2019-04-06T10:50:35.751Z,97.40
2019-04-06T10:53:09.876Z,97.50
2019-04-06T10:55:48.230Z,97.10
2019-04-06T10:58:16.825Z,96.40
2019-04-06T11:00:45.580Z,96.30
2019-04-06T11:03:26.521Z,95.70
2019-04-06T11:05:57.743Z,95.00
2019-04-06T11:08:29.317Z,94.70
2019-04-06T11:11:06.768Z,93.70
2019-04-06T11:13:36.359Z,93.40
2019-04-06T11:16:14.626Z,93.70
2019-04-06T11:18:55.100Z,93.90
2019-04-06T11:21:24.188Z,93.90
2019-04-06T11:23:52.909Z,94.00
2019-04-06T11:26:27.718Z,94.30
2019-04-06T11:29:14.699Z,93.90
2019-04-06T11:31:45.979Z,93.50
2019-04-06T11:34:17.247Z,92.90
2019-04-06T11:37:02.449Z,92.20
2019-04-06T11:39:36.981Z,92.10
2019-04-06T11:42:08.638Z,91.60
2019-04-06T11:44:43.158Z,91.70
2019-04-06T11:47:11.789Z,91.90
2019-04-06T11:49:46.336Z,92.30
2019-04-06T11:52:27.215Z,91.80
2019-04-06T11:54:55.729Z,91.50
2019-04-06T11:57:41.164Z,90.90
2019-04-06T12:00:24.652Z,91.30
2019-04-06T12:02:48.787Z,91.60
2019-04-06T12:05:20.671Z,92.10
2019-04-06T12:07:49.264Z,92.40
2019-04-06T12:10:23.809Z,91.60
2019-04-06T12:13:02.877Z,91.60
2019-04-06T12:15:37.423Z,91.40
2019-04-06T12:18:22.866Z,91.30
2019-04-06T12:20:54.781Z,90.70
2019-04-06T12:23:41.157Z,90.60
2019-04-06T12:26:09.665Z,91.20
2019-04-06T12:28:41.200Z,92.00
2019-04-06T12:31:22.342Z,92.50
2019-04-06T12:34:07.807Z,92.70
2019-04-06T12:36:42.567Z,92.50
2019-04-06T12:39:17.275Z,92.10
2019-04-06T12:41:46.161Z,91.90
2019-04-06T12:44:34.635Z,92.00
2019-04-06T12:47:06.630Z,92.00
2019-04-06T12:49:41.147Z,92.40
2019-04-06T12:52:19.037Z,92.40
2019-04-06T12:54:56.819Z,92.90
2019-04-06T12:57:25.422Z,92.20
2019-04-06T12:59:59.900Z,92.30
2019-04-06T13:02:28.519Z,91.90
2019-04-06T13:04:59.920Z,91.70
2019-04-06T13:07:40.288Z,91.10
2019-04-06T13:10:11.888Z,90.70
2019-04-06T13:12:40.521Z,90.30
2019-04-06T13:15:09.659Z,90.10
2019-04-06T13:17:41.294Z,90.00
2019-04-06T13:20:12.731Z,89.20
2019-04-06T13:22:41.437Z,88.10
2019-04-06T13:25:22.108Z,88.30
2019-04-06T13:27:59.754Z,88.80
2019-04-06T13:30:28.740Z,90.10
2019-04-06T13:32:58.129Z,90.00
2019-04-06T13:35:44.204Z,89.50
2019-04-06T13:38:14.690Z,89.70
2019-04-06T13:41:00.514Z,89.60
2019-04-06T13:43:29.046Z,89.30
2019-04-06T13:46:16.048Z,88.80
2019-04-06T13:48:47.314Z,88.50
2019-04-06T13:51:33.984Z,89.40
2019-04-06T13:54:18.301Z,89.60
2019-04-06T13:56:56.130Z,89.30
2019-04-06T13:59:36.800Z,89.40
2019-04-06T14:02:22.205Z,90.00
2019-04-06T14:04:59.700Z,90.10
2019-04-06T14:07:28.368Z,89.30
2019-04-06T14:09:56.991Z,89.30
2019-04-06T14:12:42.229Z,89.60
2019-04-06T14:15:13.559Z,89.50
2019-04-06T14:17:42.331Z,90.30
2019-04-06T14:20:13.043Z,89.60
2019-04-06T14:22:58.196Z,90.20
2019-04-06T14:25:39.214Z,90.40
2019-04-06T14:28:24.740Z,90.60
2019-04-06T14:31:05.505Z,90.60
2019-04-06T14:33:44.170Z,90.80
2019-04-06T14:36:16.135Z,91.00
2019-04-06T14:38:44.974Z,91.10
2019-04-06T14:41:16.340Z,91.20
2019-04-06T14:43:50.059Z,91.30
2019-04-06T14:46:18.626Z,91.10
2019-04-06T14:48:47.183Z,91.00
2019-04-06T14:51:15.802Z,90.90
2019-04-06T14:53:47.467Z,90.60
2019-04-06T14:56:33.467Z,90.30
2019-04-06T14:59:01.982Z,90.20
2019-04-06T15:01:45.642Z,90.00
2019-04-06T15:04:07.102Z,90.40
2019-04-06T15:06:53.648Z,90.80
2019-04-06T15:09:27.957Z,90.40
2019-04-06T15:12:13.026Z,90.60
2019-04-06T15:14:58.384Z,90.90
2019-04-06T15:17:32.771Z,90.60
2019-04-06T15:20:04.404Z,90.90
2019-04-06T15:22:36.710Z,91.30
2019-04-06T15:25:13.447Z,90.90
2019-04-06T15:27:48.292Z,91.00
2019-04-06T15:30:29.108Z,91.30
2019-04-06T15:33:01.039Z,91.60
2019-04-06T15:35:34.569Z,91.80
2019-04-06T15:38:15.225Z,92.00
2019-04-06T15:41:00.653Z,92.60
2019-04-06T15:43:45.716Z,92.30
2019-04-06T15:46:31.079Z,92.20
2019-04-06T15:49:05.850Z,92.60
2019-04-06T15:51:46.850Z,92.90
2019-04-06T15:54:32.058Z,93.20
2019-04-06T15:57:03.818Z,93.00
2019-04-06T15:59:32.448Z,92.50
2019-04-06T16:02:02.960Z,92.70
2019-04-06T16:04:46.936Z,92.70
2019-04-06T16:07:33.379Z,92.50
2019-04-06T16:10:19.645Z,92.20
2019-04-06T16:12:48.286Z,92.50
2019-04-06T16:15:33.456Z,92.60
2019-04-06T16:18:06.059Z,92.80
2019-04-06T16:20:41.024Z,92.60
2019-04-06T16:23:10.214Z,92.50
2019-04-06T16:25:45.029Z,92.60
2019-04-06T16:28:16.689Z,92.70
2019-04-06T16:30:50.466Z,92.70
2019-04-06T16:33:35.506Z,92.80
2019-04-06T16:36:20.967Z,92.90
2019-04-06T16:38:58.580Z,92.10
2019-04-06T16:41:33.095Z,92.50
2019-04-06T16:44:01.601Z,92.90
2019-04-06T16:46:30.346Z,93.20
2019-04-06T16:49:05.422Z,93.50
2019-04-06T16:51:36.756Z,93.70
2019-04-06T16:54:17.708Z,93.30
2019-04-06T16:57:04.313Z,93.00
2019-04-06T16:59:39.122Z,92.80
2019-04-06T17:02:24.516Z,92.70
2019-04-06T17:05:08.527Z,92.80
2019-04-06T17:07:39.718Z,92.90
2019-04-06T17:10:08.840Z,93.20
2019-04-06T17:12:37.697Z,93.10
2019-04-06T17:15:09.810Z,92.90
2019-04-06T17:17:38.366Z,93.40
2019-04-06T17:20:16.998Z,93.30
2019-04-06T17:23:04.295Z,92.80
2019-04-06T17:25:39.228Z,92.70
2019-04-06T17:28:10.871Z,92.80
2019-04-06T17:30:56.773Z,92.80
2019-04-06T17:33:40.458Z,92.90
2019-04-06T17:36:09.031Z,93.00
2019-04-06T17:38:55.564Z,92.90
2019-04-06T17:41:28.338Z,92.90
2019-04-06T17:43:58.082Z,93.10
2019-04-06T17:46:36.239Z,93.20
2019-04-06T17:49:24.024Z,93.20
2019-04-06T17:52:03.070Z,93.20
2019-04-06T17:54:34.940Z,93.10
2019-04-06T17:57:18.727Z,93.50
2019-04-06T17:59:54.075Z,93.40
2019-04-06T18:02:23.103Z,93.50
2019-04-06T18:05:10.297Z,93.30
2019-04-06T18:07:48.347Z,93.40
2019-04-06T18:10:17.328Z,93.50
2019-04-06T18:12:46.156Z,93.70
2019-04-06T18:15:13.045Z,93.60
2019-04-06T18:17:39.817Z,93.80
2019-04-06T18:20:07.551Z,93.80
2019-04-06T18:22:34.330Z,94.00
2019-04-06T18:25:04.159Z,94.10
2019-04-06T18:27:30.735Z,94.10
2019-04-06T18:29:57.470Z,93.90
2019-04-06T18:32:35.127Z,94.00
2019-04-06T18:35:01.944Z,94.10
2019-04-06T18:37:44.127Z,94.70
2019-04-06T18:40:13.814Z,94.40
2019-04-06T18:42:40.623Z,94.50
2019-04-06T18:45:07.556Z,94.40
2019-04-06T18:47:34.476Z,94.60
2019-04-06T18:50:01.791Z,94.50
2019-04-06T18:52:28.809Z,94.50
2019-04-06T18:54:56.068Z,94.70
2019-04-06T18:57:24.720Z,94.80
2019-04-06T18:59:51.533Z,94.90
2019-04-06T19:02:18.413Z,95.00
2019-04-06T19:04:45.147Z,95.00
2019-04-06T19:07:11.952Z,95.40
2019-04-06T19:09:39.595Z,95.30
2019-04-06T19:12:06.508Z,95.30
2019-04-06T19:14:33.375Z,95.30
2019-04-06T19:17:00.847Z,95.40
2019-04-06T19:19:28.439Z,95.40
2019-04-06T19:21:55.630Z,95.50
2019-04-06T19:24:22.558Z,95.60
2019-04-06T19:26:49.274Z,95.70
2019-04-06T19:29:16.064Z,95.80
2019-04-06T19:31:43.238Z,95.80
2019-04-06T19:34:10.281Z,95.80
2019-04-06T19:36:37.854Z,95.90
2019-04-06T19:39:08.675Z,96.10
2019-04-06T19:41:35.509Z,96.20
2019-04-06T19:44:02.590Z,96.40
2019-04-06T19:46:30.647Z,96.60
2019-04-06T19:48:57.396Z,96.40
2019-04-06T19:51:24.123Z,96.50
2019-04-06T19:53:51.160Z,96.40
2019-04-06T19:56:17.942Z,96.60
2019-04-06T19:58:44.827Z,96.60
2019-04-06T20:01:11.805Z,96.70
2019-04-06T20:03:39.376Z,96.40
2019-04-06T20:06:06.773Z,96.70
2019-04-06T20:08:33.397Z,96.60
2019-04-06T20:11:00.238Z,96.60
2019-04-06T20:13:28.765Z,96.60
2019-04-06T20:15:57.116Z,96.60
2019-04-06T20:18:23.870Z,96.60
2019-04-06T20:20:50.639Z,96.80
2019-04-06T20:23:18.765Z,96.80
2019-04-06T20:25:45.488Z,96.70
2019-04-06T20:28:12.332Z,96.70
2019-04-06T20:30:39.731Z,96.70
2019-04-06T20:33:07.083Z,96.70
2019-04-06T20:35:34.095Z,96.80
2019-04-06T20:38:00.806Z,96.70
2019-04-06T20:40:27.569Z,97.00
2019-04-06T20:42:54.549Z,97.10
2019-04-06T20:45:21.509Z,97.10
2019-04-06T20:47:48.526Z,97.10
2019-04-06T20:50:15.567Z,97.30
2019-04-06T20:52:42.510Z,97.00
2019-04-06T20:55:10.110Z,97.00
2019-04-06T20:57:37.308Z,97.00
2019-04-06T21:00:07.181Z,97.50
2019-04-06T21:02:36.257Z,97.40
2019-04-06T21:05:07.954Z,97.40
2019-04-06T21:07:34.819Z,97.70
2019-04-06T21:10:02.179Z,97.90
2019-04-06T21:12:30.249Z,98.40
2019-04-06T21:14:57.149Z,98.30
2019-04-06T21:17:23.771Z,98.20
2019-04-06T21:19:50.657Z,98.10
2019-04-06T21:22:17.483Z,98.00
2019-04-06T21:24:44.931Z,98.00
2019-04-06T21:27:13.975Z,98.40
2019-04-06T21:29:40.883Z,98.30
2019-04-06T21:32:07.651Z,98.40
2019-04-06T21:34:34.868Z,98.50
2019-04-06T21:37:01.978Z,98.70
2019-04-06T21:39:30.642Z,98.70
2019-04-06T21:41:59.693Z,98.70
2019-04-06T21:44:26.725Z,98.80
2019-04-06T21:46:53.797Z,99.10
2019-04-06T21:49:21.132Z,98.90
2019-04-06T21:51:48.731Z,99.10
2019-04-06T21:54:16.001Z,99.10
2019-04-06T21:56:43.413Z,99.50
2019-04-06T21:59:10.119Z,99.20
2019-04-06T22:01:37.199Z,99.20
2019-04-06T22:04:04.367Z,99.30
2019-04-06T22:06:31.655Z,99.40
2019-04-06T22:08:58.437Z,99.50
2019-04-06T22:11:25.116Z,99.60
2019-04-06T22:13:52.193Z,99.60
2019-04-06T22:16:20.151Z,99.70
2019-04-06T22:18:47.009Z,99.90
2019-04-06T22:21:13.907Z,99.90
2019-04-06T22:23:43.879Z,99.90
2019-04-06T22:26:09.357Z,99.90
2019-04-06T22:28:36.688Z,99.90
2019-04-06T22:31:03.603Z,99.90
2019-04-06T22:33:30.572Z,99.90
2019-04-06T22:35:57.468Z,99.90
2019-04-06T22:38:24.143Z,99.90
2019-04-06T22:40:50.868Z,99.90
2019-04-06T22:43:17.519Z,99.90
2019-04-06T22:45:45.298Z,99.90
2019-04-06T22:48:12.167Z,99.90
2019-04-06T22:50:39.277Z,99.90
2019-04-06T22:53:06.537Z,99.90
2019-04-06T22:55:33.581Z,99.90
2019-04-06T22:58:00.321Z,99.90
2019-04-06T23:00:29.399Z,99.90
2019-04-06T23:03:15.037Z,99.90
2019-04-06T23:05:47.018Z,99.90
2019-04-06T23:08:14.563Z,99.90
2019-04-06T23:10:42.143Z,99.90
2019-04-06T23:13:09.037Z,99.90
2019-04-06T23:15:36.068Z,99.90
2019-04-06T23:18:03.562Z,99.90
2019-04-06T23:20:32.269Z,99.90
2019-04-06T23:22:59.456Z,99.90
2019-04-06T23:25:26.804Z,99.90
2019-04-06T23:27:53.695Z,99.90
2019-04-06T23:30:20.415Z,99.90
2019-04-06T23:32:47.760Z,99.90
2019-04-06T23:35:15.201Z,99.90
2019-04-06T23:37:42.051Z,99.90
2019-04-06T23:40:09.137Z,99.90
2019-04-06T23:42:37.638Z,99.90
2019-04-06T23:45:05.984Z,99.90
2019-04-06T23:47:32.799Z,99.90
2019-04-06T23:49:59.714Z,99.90
2019-04-06T23:52:27.456Z,99.90
2019-04-06T23:54:54.682Z,99.90
2019-04-06T23:57:22.457Z,99.90
2019-04-06T23:59:49.074Z,99.90
